Time;durP1;ratioP1;P1;durP2;ratioP2;P2;SDS_P1;SDS_P2;PMS_P1;PMS_P2;Temp;Humidity;BMP_temperature;BMP_pressure;BME280_temperature;BME280_humidity;BME280_pressure;Samples;Min_cycle;Max_cycle;Signal;HPM_P1;HPM_P2
2023/03/13 00:01:30;;;;;;;9.38;2.60;;;10.80;95.10;;;;;;5115583;28;20020;-72
2023/03/13 00:03:55;;;;;;;9.98;2.65;;;10.70;95.30;;;;;;5105536;28;20066;-71
2023/03/13 00:06:26;;;;;;;7.88;2.00;;;10.80;95.20;;;;;;5115482;28;20092;-73
2023/03/13 00:08:53;;;;;;;8.27;2.25;;;10.80;95.40;;;;;;5115335;28;20036;-71
2023/03/13 00:11:19;;;;;;;9.60;2.40;;;10.70;95.50;;;;;;5115350;28;20054;-73
2023/03/13 00:13:45;;;;;;;9.48;2.38;;;10.80;95.50;;;;;;5115331;28;20032;-73
2023/03/13 00:16:13;;;;;;;7.50;1.75;;;10.80;95.70;;;;;;5115228;28;20032;-71
2023/03/13 00:18:43;;;;;;;8.45;2.00;;;10.70;95.60;;;;;;5115225;28;20016;-72
2023/03/13 00:21:09;;;;;;;5.68;1.27;;;10.80;95.90;;;;;;5115260;28;20027;-72
2023/03/13 00:23:36;;;;;;;8.82;2.10;;;10.70;95.80;;;;;;5115150;28;20056;-72
2023/03/13 00:26:11;;;;;;;9.68;2.72;;;10.70;96.10;;;;;;5115074;28;20024;-72
2023/03/13 00:28:38;;;;;;;9.57;2.50;;;10.70;96.50;;;;;;5114069;28;20029;-71
2023/03/13 00:31:07;;;;;;;7.70;1.77;;;10.70;97.20;;;;;;5114606;28;20096;-71
2023/03/13 00:33:38;;;;;;;11.10;2.63;;;10.60;97.80;;;;;;5114989;28;20103;-71
2023/03/13 00:36:06;;;;;;;14.52;2.72;;;10.60;98.10;;;;;;5114841;28;20047;-72
2023/03/13 00:38:33;;;;;;;12.55;2.50;;;10.60;98.60;;;;;;5114792;28;20016;-71
2023/03/13 00:41:03;;;;;;;11.90;2.65;;;10.50;99.10;;;;;;5113849;28;20026;-71
2023/03/13 00:43:29;;;;;;;7.18;1.80;;;10.50;99.10;;;;;;5113815;28;20028;-71
2023/03/13 00:45:55;;;;;;;9.88;1.90;;;10.50;99.60;;;;;;5114676;28;20027;-72
2023/03/13 00:48:22;;;;;;;6.78;1.52;;;10.50;99.90;;;;;;5114476;28;20051;-71
2023/03/13 00:50:47;;;;;;;6.90;1.65;;;10.40;99.90;;;;;;5114637;28;20023;-72
2023/03/13 00:53:13;;;;;;;10.18;2.42;;;10.40;99.90;;;;;;5114572;28;20032;-71
2023/03/13 00:55:39;;;;;;;8.95;2.45;;;10.40;99.90;;;;;;5114550;28;20027;-70
2023/03/13 00:58:04;;;;;;;5.03;1.67;;;10.30;99.90;;;;;;5114398;28;20552;-71
2023/03/13 01:00:30;;;;;;;8.35;2.47;;;10.30;99.90;;;;;;5114451;28;20024;-72
2023/03/13 01:02:56;;;;;;;7.10;1.65;;;10.20;99.90;;;;;;5114397;28;20028;-72
2023/03/13 01:05:21;;;;;;;12.00;2.88;;;10.20;99.90;;;;;;5113456;28;20045;-71
2023/03/13 01:07:47;;;;;;;10.73;2.53;;;10.30;99.90;;;;;;5114227;28;20024;-73
2023/03/13 01:10:12;;;;;;;9.73;2.40;;;10.30;99.90;;;;;;5114260;28;20386;-71
2023/03/13 01:12:38;;;;;;;8.65;2.08;;;10.30;99.90;;;;;;5113290;28;20032;-71
2023/03/13 01:15:04;;;;;;;8.60;2.50;;;10.20;99.90;;;;;;5114166;28;20031;-71
2023/03/13 01:17:30;;;;;;;6.43;1.90;;;10.20;99.90;;;;;;5114065;28;20020;-71
2023/03/13 01:19:56;;;;;;;9.93;2.25;;;10.20;99.90;;;;;;5114067;28;20028;-71
2023/03/13 01:22:22;;;;;;;8.50;2.17;;;10.20;99.90;;;;;;5112981;28;20032;-71
2023/03/13 01:24:51;;;;;;;12.43;3.50;;;10.20;99.90;;;;;;5114160;28;20024;-71
2023/03/13 01:27:17;;;;;;;9.38;2.45;;;10.30;99.90;;;;;;5114006;28;20047;-71
2023/03/13 01:29:42;;;;;;;8.23;1.75;;;10.30;99.90;;;;;;5113029;28;20046;-71
2023/03/13 01:32:08;;;;;;;6.75;1.88;;;10.30;99.90;;;;;;5113908;28;20088;-71
2023/03/13 01:34:34;;;;;;;8.40;2.38;;;10.30;99.90;;;;;;5113997;28;20114;-71
2023/03/13 01:37:00;;;;;;;11.82;2.38;;;10.30;99.90;;;;;;5113917;28;20083;-71
2023/03/13 01:39:25;;;;;;;10.98;2.20;;;10.30;99.90;;;;;;5113801;28;20028;-72
2023/03/13 01:41:51;;;;;;;8.40;1.67;;;10.30;99.90;;;;;;5113785;28;20035;-71
2023/03/13 01:44:26;;;;;;;9.95;1.67;;;10.30;99.90;;;;;;5112163;28;20027;-72
2023/03/13 01:46:52;;;;;;;8.15;1.95;;;10.30;99.90;;;;;;5113631;28;20035;-73
2023/03/13 01:49:27;;;;;;;5.57;1.73;;;10.40;99.90;;;;;;5112671;28;20100;-73
2023/03/13 01:51:58;;;;;;;6.00;1.45;;;10.40;99.90;;;;;;5113666;28;20020;-72
2023/03/13 01:54:26;;;;;;;10.98;2.08;;;10.40;99.90;;;;;;5113627;28;20084;-73
2023/03/13 01:57:03;;;;;;;9.00;2.25;;;10.40;99.90;;;;;;5113479;28;20054;-73
2023/03/13 02:00:02;;;;;;;6.28;1.80;;;10.50;99.90;;;;;;5113585;28;20528;-73
2023/03/13 02:02:29;;;;;;;5.30;1.77;;;10.50;99.90;;;;;;5113555;28;20016;-73
2023/03/13 02:04:59;;;;;;;5.93;1.42;;;10.50;99.90;;;;;;5112734;28;20050;-72
2023/03/13 02:07:48;;;;;;;3.85;1.50;;;10.50;99.90;;;;;;5112496;28;20024;-73
2023/03/13 02:10:16;;;;;;;8.80;2.22;;;10.50;99.90;;;;;;5111101;28;20032;-72
2023/03/13 02:12:43;;;;;;;7.60;2.20;;;10.60;99.90;;;;;;5113424;28;20024;-73
2023/03/13 02:15:14;;;;;;;7.70;2.15;;;10.60;99.90;;;;;;5113426;28;20087;-73
2023/03/13 02:17:41;;;;;;;6.55;2.08;;;10.60;99.90;;;;;;5113470;28;20047;-73
2023/03/13 02:20:08;;;;;;;3.95;1.70;;;10.70;99.90;;;;;;5113511;28;20024;-73
2023/03/13 02:22:42;;;;;;;4.53;1.73;;;10.70;99.90;;;;;;5113298;28;20020;-73
2023/03/13 02:25:23;;;;;;;5.13;1.98;;;10.80;99.90;;;;;;5113288;28;20024;-73
2023/03/13 02:28:04;;;;;;;6.78;1.80;;;10.80;99.90;;;;;;5113427;28;20024;-73
2023/03/13 02:30:29;;;;;;;6.18;2.10;;;10.80;99.90;;;;;;5113325;28;20044;-73
2023/03/13 02:32:55;;;;;;;7.53;2.00;;;10.90;99.90;;;;;;5113238;28;20039;-72
2023/03/13 02:35:22;;;;;;;4.32;1.80;;;10.90;99.90;;;;;;5113236;28;20102;-73
2023/03/13 02:38:03;;;;;;;3.78;1.92;;;11.00;99.90;;;;;;5113123;28;20043;-72
2023/03/13 02:40:32;;;;;;;7.75;2.53;;;11.00;99.90;;;;;;5113220;28;20023;-72
2023/03/13 02:43:02;;;;;;;5.82;2.22;;;11.10;99.90;;;;;;5113513;28;20017;-72
2023/03/13 02:45:27;;;;;;;5.90;2.25;;;11.10;99.90;;;;;;5112120;28;20115;-72
2023/03/13 02:47:53;;;;;;;8.32;2.75;;;11.10;99.90;;;;;;5112070;28;20036;-72
2023/03/13 02:50:19;;;;;;;7.22;2.97;;;11.10;99.90;;;;;;5113204;28;20491;-72
2023/03/13 02:52:54;;;;;;;4.70;2.05;;;11.20;99.90;;;;;;5113049;28;20475;-72
2023/03/13 02:55:31;;;;;;;6.10;2.60;;;11.20;99.90;;;;;;5115599;28;20024;-73
2023/03/13 02:57:57;;;;;;;5.63;1.70;;;11.20;99.90;;;;;;5116810;28;20058;-72
2023/03/13 03:00:26;;;;;;;4.95;2.53;;;11.10;99.90;;;;;;5116770;28;20032;-73
2023/03/13 03:02:53;;;;;;;6.65;2.40;;;11.20;99.90;;;;;;5116729;28;20046;-72
2023/03/13 03:05:18;;;;;;;5.32;2.70;;;11.20;99.90;;;;;;5116677;28;20031;-72
2023/03/13 03:07:44;;;;;;;4.90;2.67;;;11.30;99.90;;;;;;5098686;28;20020;-72
2023/03/13 03:10:10;;;;;;;7.80;2.70;;;11.30;99.90;;;;;;5116601;28;20109;-72
2023/03/13 03:12:36;;;;;;;6.35;2.63;;;11.30;99.90;;;;;;5116529;28;20032;-72
2023/03/13 03:15:03;;;;;;;6.75;3.28;;;11.30;99.90;;;;;;5098597;28;20039;-72
2023/03/13 03:17:29;;;;;;;5.15;2.63;;;11.40;99.90;;;;;;5116382;28;20045;-73
2023/03/13 03:19:55;;;;;;;7.18;2.92;;;11.40;99.90;;;;;;5116562;28;20024;-72
2023/03/13 03:22:21;;;;;;;8.07;3.17;;;11.40;99.90;;;;;;5116337;28;20112;-73
2023/03/13 03:24:47;;;;;;;5.10;2.63;;;11.50;99.90;;;;;;5116423;28;20021;-73
2023/03/13 03:27:13;;;;;;;6.22;3.08;;;11.50;99.90;;;;;;5116270;28;20031;-72
2023/03/13 03:29:39;;;;;;;7.55;3.95;;;11.50;99.90;;;;;;5115202;28;20020;-73
2023/03/13 03:32:04;;;;;;;6.20;3.38;;;11.50;99.90;;;;;;5116171;28;20555;-73
2023/03/13 03:34:30;;;;;;;6.18;3.22;;;11.50;99.90;;;;;;5116138;28;20032;-72
2023/03/13 03:36:56;;;;;;;7.57;3.30;;;11.60;99.90;;;;;;5115974;28;20028;-73
2023/03/13 03:39:21;;;;;;;7.15;3.58;;;11.50;99.90;;;;;;5115110;28;20108;-72
2023/03/13 03:41:47;;;;;;;7.78;3.90;;;11.60;99.90;;;;;;5115991;28;20093;-73
2023/03/13 03:44:12;;;;;;;5.25;3.22;;;11.60;99.90;;;;;;5115950;28;20052;-72
2023/03/13 03:46:38;;;;;;;6.32;3.90;;;11.60;99.90;;;;;;5115892;28;20032;-71
2023/03/13 03:49:04;;;;;;;6.15;3.83;;;11.70;99.90;;;;;;5115673;28;20055;-71
2023/03/13 03:51:29;;;;;;;5.72;3.33;;;11.70;99.90;;;;;;5115822;28;20024;-73
2023/03/13 03:53:55;;;;;;;5.55;3.55;;;11.70;99.90;;;;;;5115777;28;20032;-72
2023/03/13 03:56:20;;;;;;;7.22;4.13;;;11.70;99.90;;;;;;5115590;28;20036;-72
2023/03/13 03:58:46;;;;;;;6.55;3.90;;;11.80;99.90;;;;;;5114956;28;20083;-72
2023/03/13 04:01:11;;;;;;;7.25;4.25;;;11.80;99.90;;;;;;5114578;28;20032;-71
2023/03/13 04:03:37;;;;;;;8.23;3.47;;;11.80;99.90;;;;;;5115682;28;20024;-72
2023/03/13 04:06:03;;;;;;;6.18;3.20;;;11.80;99.90;;;;;;5113876;28;20035;-72
2023/03/13 04:08:29;;;;;;;4.55;2.70;;;11.80;99.90;;;;;;5115521;28;20048;-73
2023/03/13 04:10:54;;;;;;;9.30;3.83;;;11.90;99.90;;;;;;5115405;28;20050;-73
2023/03/13 04:13:20;;;;;;;7.10;4.03;;;11.90;99.90;;;;;;5114498;28;20086;-73
2023/03/13 04:15:46;;;;;;;6.13;3.35;;;11.90;99.90;;;;;;5115323;28;20028;-73
2023/03/13 04:18:12;;;;;;;7.32;3.38;;;12.00;99.90;;;;;;5115206;28;20077;-73
2023/03/13 04:20:37;;;;;;;6.53;3.83;;;12.00;99.90;;;;;;5114281;28;20036;-73
2023/03/13 04:23:03;;;;;;;7.97;3.35;;;12.00;99.90;;;;;;5115170;28;20012;-74
2023/03/13 04:25:28;;;;;;;6.55;3.22;;;12.00;99.90;;;;;;5114211;28;20043;-75
2023/03/13 04:27:54;;;;;;;5.53;3.03;;;12.00;99.90;;;;;;5115243;28;20036;-73
2023/03/13 04:30:21;;;;;;;7.55;3.42;;;12.10;99.90;;;;;;5115186;28;20050;-73
2023/03/13 04:32:46;;;;;;;4.80;2.65;;;12.10;99.90;;;;;;5115042;28;20036;-73
2023/03/13 04:35:12;;;;;;;5.82;3.03;;;12.10;99.90;;;;;;5114973;28;20046;-73
2023/03/13 04:37:37;;;;;;;6.07;2.90;;;12.10;99.90;;;;;;5114839;28;20031;-73
2023/03/13 04:40:04;;;;;;;7.32;3.63;;;12.20;99.90;;;;;;5114018;28;20042;-74
2023/03/13 04:42:29;;;;;;;5.55;2.58;;;12.20;99.90;;;;;;5114733;28;20047;-75
2023/03/13 04:44:55;;;;;;;7.50;3.05;;;12.20;99.90;;;;;;5114750;28;20016;-73
2023/03/13 04:47:20;;;;;;;6.75;3.45;;;12.30;99.90;;;;;;5114559;28;20052;-73
2023/03/13 04:49:46;;;;;;;6.72;3.22;;;12.30;99.90;;;;;;5114671;28;20032;-73
2023/03/13 04:52:12;;;;;;;4.93;3.10;;;12.40;99.90;;;;;;5114755;28;20039;-73
2023/03/13 04:54:37;;;;;;;5.60;3.50;;;12.40;99.90;;;;;;5114597;28;20043;-72
2023/03/13 04:57:03;;;;;;;6.72;3.05;;;12.40;99.90;;;;;;5114594;28;20066;-73
2023/03/13 04:59:29;;;;;;;5.22;2.40;;;12.50;99.90;;;;;;5114455;28;20084;-73
2023/03/13 05:01:54;;;;;;;6.18;3.10;;;12.50;99.90;;;;;;5114401;28;20111;-73
2023/03/13 05:04:20;;;;;;;6.35;3.28;;;12.50;99.90;;;;;;5114425;28;20046;-73
2023/03/13 05:06:45;;;;;;;6.18;2.63;;;12.50;99.90;;;;;;5114367;28;20046;-73
2023/03/13 05:09:11;;;;;;;6.60;2.50;;;12.50;99.90;;;;;;5114229;28;20047;-73
2023/03/13 05:11:37;;;;;;;4.82;1.95;;;12.60;99.90;;;;;;5114268;28;20085;-73
2023/03/13 05:14:03;;;;;;;4.75;2.05;;;12.60;99.90;;;;;;5114224;28;20032;-73
2023/03/13 05:16:28;;;;;;;3.65;2.15;;;12.60;99.90;;;;;;5114124;28;20024;-73
2023/03/13 05:18:54;;;;;;;5.57;2.55;;;12.60;99.90;;;;;;5114136;28;20119;-73
2023/03/13 05:21:20;;;;;;;5.78;2.58;;;12.70;99.90;;;;;;5114119;28;20024;-72
2023/03/13 05:23:45;;;;;;;7.70;2.85;;;12.70;99.90;;;;;;5114210;28;20490;-72
2023/03/13 05:26:11;;;;;;;4.30;2.40;;;12.80;99.90;;;;;;5113018;28;20032;-73
2023/03/13 05:28:36;;;;;;;4.68;2.67;;;12.80;99.90;;;;;;5113981;28;20028;-72
2023/03/13 05:31:02;;;;;;;4.47;2.47;;;12.80;99.90;;;;;;5113912;28;20028;-73
2023/03/13 05:33:28;;;;;;;5.60;2.30;;;12.90;99.90;;;;;;5114021;28;20036;-73
2023/03/13 05:35:53;;;;;;;5.13;2.17;;;12.90;99.90;;;;;;5113887;28;20024;-73
2023/03/13 05:38:19;;;;;;;3.80;2.10;;;12.90;99.90;;;;;;5113031;28;20043;-73
2023/03/13 05:40:44;;;;;;;4.22;2.58;;;12.90;99.90;;;;;;5113786;28;20024;-73
2023/03/13 05:43:10;;;;;;;4.95;2.25;;;12.90;99.90;;;;;;5113873;28;20050;-73
2023/03/13 05:45:35;;;;;;;6.00;2.53;;;12.90;99.90;;;;;;5113734;28;20078;-73
2023/03/13 05:48:01;;;;;;;1.63;1.27;;;12.90;99.90;;;;;;5112664;28;20066;-73
2023/03/13 05:50:27;;;;;;;2.75;1.67;;;12.90;99.90;;;;;;5113629;28;20027;-73
2023/03/13 05:52:52;;;;;;;4.93;2.20;;;13.00;99.90;;;;;;5113611;28;20507;-73
2023/03/13 05:55:19;;;;;;;3.85;2.10;;;13.00;99.90;;;;;;5113627;28;20032;-73
2023/03/13 05:57:46;;;;;;;5.53;2.17;;;13.10;99.90;;;;;;5113464;28;20398;-73
2023/03/13 06:00:14;;;;;;;3.40;2.00;;;13.10;99.90;;;;;;5113543;28;20027;-73
2023/03/13 06:02:40;;;;;;;5.22;2.15;;;13.20;99.90;;;;;;5113480;28;20080;-74
2023/03/13 06:05:06;;;;;;;4.43;2.03;;;13.20;99.90;;;;;;5113466;28;20054;-73
2023/03/13 06:07:31;;;;;;;3.88;2.33;;;13.20;99.90;;;;;;5113495;28;20024;-73
2023/03/13 06:09:57;;;;;;;4.82;2.40;;;13.30;99.90;;;;;;5113414;28;20036;-73
2023/03/13 06:12:23;;;;;;;5.72;2.45;;;13.30;99.90;;;;;;5113563;28;20028;-74
2023/03/13 06:14:48;;;;;;;3.67;1.40;;;13.30;99.90;;;;;;5113406;28;20035;-74
2023/03/13 06:17:14;;;;;;;5.10;2.20;;;13.30;99.80;;;;;;5113440;28;20024;-73
2023/03/13 06:19:40;;;;;;;3.92;2.00;;;13.30;99.70;;;;;;5113382;28;20033;-73
2023/03/13 06:22:05;;;;;;;6.45;2.30;;;13.30;99.40;;;;;;5112399;28;20046;-73
2023/03/13 06:24:31;;;;;;;3.78;1.60;;;13.40;99.20;;;;;;5113332;28;20031;-72
2023/03/13 06:26:56;;;;;;;3.75;1.98;;;13.40;98.90;;;;;;5113286;28;20036;-73
2023/03/13 06:29:23;;;;;;;4.65;1.98;;;13.40;98.80;;;;;;5114392;28;20021;-74
2023/03/13 06:31:50;;;;;;;3.78;2.05;;;13.40;98.60;;;;;;5117338;28;20021;-73
2023/03/13 06:34:16;;;;;;;6.80;2.10;;;13.40;98.40;;;;;;5117246;28;20031;-73
2023/03/13 06:36:41;;;;;;;5.10;1.75;;;13.40;98.20;;;;;;5116274;28;20084;-73
2023/03/13 06:39:08;;;;;;;4.68;2.10;;;13.50;98.00;;;;;;5116154;28;20023;-73
2023/03/13 06:41:34;;;;;;;4.82;2.00;;;13.50;98.00;;;;;;5117102;28;20410;-73
2023/03/13 06:43:59;;;;;;;4.50;2.10;;;13.50;98.10;;;;;;5117106;28;20041;-73
2023/03/13 06:46:25;;;;;;;5.00;1.90;;;13.50;97.90;;;;;;5117042;28;20025;-73
2023/03/13 06:48:51;;;;;;;3.70;2.03;;;13.50;97.80;;;;;;5115811;28;20051;-73
2023/03/13 06:51:19;;;;;;;7.22;1.88;;;13.50;97.50;;;;;;5116920;28;20024;-73
2023/03/13 06:53:46;;;;;;;4.85;2.03;;;13.50;97.20;;;;;;5116809;28;20018;-74
2023/03/13 06:56:12;;;;;;;5.75;2.00;;;13.60;97.10;;;;;;5116865;28;20032;-73
2023/03/13 06:58:37;;;;;;;3.67;1.90;;;13.60;97.00;;;;;;5116677;28;20059;-72
2023/03/13 07:01:11;;;;;;;4.03;1.95;;;13.60;96.90;;;;;;5116674;28;20028;-73
2023/03/13 07:03:37;;;;;;;3.80;1.75;;;13.70;96.50;;;;;;5116880;28;20027;-73
2023/03/13 07:06:04;;;;;;;4.55;1.75;;;13.60;96.50;;;;;;5115665;28;20030;-73
2023/03/13 07:08:30;;;;;;;5.22;1.88;;;13.60;96.30;;;;;;5116540;28;20475;-73
2023/03/13 07:11:02;;;;;;;8.88;2.20;;;13.70;96.40;;;;;;5115574;28;20039;-73
2023/03/13 07:13:28;;;;;;;4.78;1.60;;;13.70;96.30;;;;;;5116603;28;20024;-73
2023/03/13 07:15:54;;;;;;;4.38;1.73;;;13.70;96.10;;;;;;5116521;28;20486;-73
2023/03/13 07:18:21;;;;;;;4.13;1.90;;;13.70;96.10;;;;;;5116400;28;20028;-73
2023/03/13 07:20:55;;;;;;;6.15;2.00;;;13.70;96.00;;;;;;5115472;28;20034;-73
2023/03/13 07:23:22;;;;;;;4.25;2.03;;;13.70;96.10;;;;;;5116406;28;20149;-73
2023/03/13 07:26:03;;;;;;;6.88;1.88;;;13.70;95.90;;;;;;5116327;28;20024;-73
2023/03/13 07:28:30;;;;;;;5.97;1.98;;;13.80;95.80;;;;;;5116267;28;20039;-74
2023/03/13 07:31:12;;;;;;;5.63;2.28;;;13.80;95.70;;;;;;5116253;28;20024;-73
2023/03/13 07:33:38;;;;;;;4.97;1.38;;;13.80;95.80;;;;;;5116200;28;20043;-73
2023/03/13 07:36:04;;;;;;;6.30;1.90;;;13.80;95.40;;;;;;5116136;28;20542;-73
2023/03/13 07:38:29;;;;;;;5.07;1.67;;;13.80;95.60;;;;;;5116023;28;20047;-73
2023/03/13 07:40:56;;;;;;;5.60;2.10;;;13.90;95.40;;;;;;5114823;28;20020;-73
2023/03/13 07:43:23;;;;;;;4.93;2.10;;;13.90;95.40;;;;;;5115989;28;20028;-73
2023/03/13 07:46:00;;;;;;;4.57;1.90;;;13.90;95.40;;;;;;5115939;28;20028;-74
2023/03/13 07:48:32;;;;;;;5.15;2.03;;;13.90;95.10;;;;;;5115720;28;20047;-74
2023/03/13 07:50:58;;;;;;;6.03;2.10;;;14.00;95.10;;;;;;5115872;28;20051;-74
2023/03/13 07:53:24;;;;;;;2.70;1.50;;;14.00;95.20;;;;;;5115929;28;20048;-75
2023/03/13 07:55:55;;;;;;;7.13;1.70;;;14.00;95.40;;;;;;5115740;28;20024;-73
2023/03/13 07:58:22;;;;;;;8.75;2.00;;;14.10;95.00;;;;;;5115645;28;20036;-74
2023/03/13 08:00:47;;;;;;;5.45;1.73;;;14.10;95.00;;;;;;5115634;28;20020;-74
2023/03/13 08:03:13;;;;;;;4.28;1.63;;;14.10;94.80;;;;;;5115611;28;20035;-74
2023/03/13 08:05:39;;;;;;;2.80;1.63;;;14.10;95.00;;;;;;5114646;28;20023;-74
2023/03/13 08:08:05;;;;;;;7.57;1.70;;;14.10;94.90;;;;;;5115429;28;20048;-74
2023/03/13 08:10:31;;;;;;;12.15;1.88;;;14.10;94.70;;;;;;5115462;28;20062;-74
2023/03/13 08:12:56;;;;;;;5.03;1.67;;;14.10;94.70;;;;;;5114495;28;20031;-73
2023/03/13 08:15:24;;;;;;;5.07;1.33;;;14.10;94.80;;;;;;5115353;28;20518;-74
2023/03/13 08:17:51;;;;;;;5.95;1.85;;;14.10;94.90;;;;;;5115268;28;20020;-74
2023/03/13 08:20:20;;;;;;;2.33;1.08;;;14.10;95.30;;;;;;5114440;28;20024;-74
2023/03/13 08:22:46;;;;;;;4.30;1.27;;;14.10;95.00;;;;;;5115251;28;20024;-74
2023/03/13 08:25:13;;;;;;;4.05;1.98;;;14.10;95.00;;;;;;5115169;28;20054;-74
2023/03/13 08:27:38;;;;;;;5.80;1.90;;;14.20;95.20;;;;;;5115100;28;20050;-74
2023/03/13 08:30:05;;;;;;;3.40;1.80;;;14.20;95.10;;;;;;5115064;28;20024;-74
2023/03/13 08:32:35;;;;;;;5.00;1.60;;;14.20;95.30;;;;;;5113998;28;20032;-74
2023/03/13 08:35:02;;;;;;;4.97;1.73;;;14.30;94.50;;;;;;5114965;28;20024;-74
2023/03/13 08:37:28;;;;;;;8.18;1.95;;;14.30;94.90;;;;;;5114856;28;20050;-74
2023/03/13 08:39:55;;;;;;;3.75;1.70;;;14.30;94.70;;;;;;5114848;28;20467;-74
2023/03/13 08:42:21;;;;;;;1.95;1.25;;;14.40;94.50;;;;;;5114853;28;20066;-74
2023/03/13 08:44:47;;;;;;;4.43;1.70;;;14.40;94.10;;;;;;5114796;28;20024;-74
2023/03/13 08:47:13;;;;;;;3.15;1.85;;;14.40;94.30;;;;;;5114554;28;20031;-74
2023/03/13 08:49:39;;;;;;;8.38;1.90;;;14.40;94.40;;;;;;5114753;28;20024;-74
2023/03/13 08:52:05;;;;;;;5.45;1.50;;;14.40;95.00;;;;;;5114356;28;20114;-74
2023/03/13 08:54:31;;;;;;;5.93;2.17;;;14.40;95.40;;;;;;5114620;28;20024;-74
2023/03/13 08:56:58;;;;;;;5.57;2.10;;;14.30;95.50;;;;;;5114461;28;20062;-74
2023/03/13 08:59:24;;;;;;;3.33;1.80;;;14.30;95.50;;;;;;5114497;28;20019;-74
2023/03/13 09:01:50;;;;;;;6.50;1.65;;;14.30;94.90;;;;;;5113528;28;20020;-74
2023/03/13 09:04:16;;;;;;;5.40;1.67;;;14.30;95.00;;;;;;5114432;28;20031;-74
2023/03/13 09:06:42;;;;;;;9.68;1.80;;;14.30;94.90;;;;;;5114335;28;20092;-74
2023/03/13 09:09:08;;;;;;;10.95;4.03;;;14.30;94.40;;;;;;5114311;28;20039;-74
2023/03/13 09:11:36;;;;;;;5.35;2.60;;;14.30;94.50;;;;;;5114317;28;20048;-74
2023/03/13 09:14:02;;;;;;;3.70;2.33;;;14.40;94.00;;;;;;5114225;28;20062;-74
2023/03/13 09:16:29;;;;;;;6.68;3.10;;;14.50;94.20;;;;;;5114282;28;20024;-74
2023/03/13 09:18:56;;;;;;;5.80;2.28;;;14.50;94.00;;;;;;5114157;28;20024;-75
2023/03/13 09:21:30;;;;;;;4.38;1.80;;;14.50;93.50;;;;;;5113139;28;20035;-74
2023/03/13 09:23:56;;;;;;;3.22;2.40;;;14.50;93.20;;;;;;5114142;28;20024;-74
2023/03/13 09:26:23;;;;;;;5.53;2.60;;;14.70;93.50;;;;;;5114172;28;20024;-75
2023/03/13 09:28:52;;;;;;;3.28;1.45;;;14.70;93.60;;;;;;5114004;28;20044;-74
2023/03/13 09:31:21;;;;;;;3.65;1.90;;;14.70;93.20;;;;;;5114079;28;20027;-74
2023/03/13 09:33:48;;;;;;;3.25;1.60;;;14.80;93.10;;;;;;5113946;28;20021;-74
2023/03/13 09:36:15;;;;;;;2.17;1.30;;;14.90;92.70;;;;;;5113854;28;20024;-74
2023/03/13 09:38:41;;;;;;;4.90;1.80;;;15.00;92.50;;;;;;5113945;28;20092;-74
2023/03/13 09:41:15;;;;;;;7.88;2.20;;;15.10;92.60;;;;;;5113822;28;20043;-74
2023/03/13 09:43:45;;;;;;;3.30;1.55;;;15.20;93.10;;;;;;5112914;28;20024;-73
2023/03/13 09:46:24;;;;;;;4.68;2.13;;;15.30;92.50;;;;;;5113735;28;20087;-73
2023/03/13 09:48:58;;;;;;;6.25;2.58;;;15.50;92.70;;;;;;5113572;28;20047;-73
2023/03/13 09:51:29;;;;;;;4.47;1.60;;;15.60;92.00;;;;;;5113726;28;20028;-73
2023/03/13 09:54:26;;;;;;;4.43;1.70;;;15.80;91.70;;;;;;5113688;28;20073;-74
2023/03/13 09:56:54;;;;;;;5.47;2.10;;;15.90;91.70;;;;;;5113602;28;20088;-73
2023/03/13 09:59:36;;;;;;;6.50;1.77;;;15.90;91.00;;;;;;5113599;28;20086;-73
2023/03/13 10:02:14;;;;;;;4.32;1.88;;;16.00;90.70;;;;;;5113630;28;20103;-73
2023/03/13 10:04:46;;;;;;;2.00;1.30;;;16.10;89.70;;;;;;5112884;28;20019;-72
2023/03/13 10:07:12;;;;;;;3.38;1.55;;;16.20;88.70;;;;;;5113402;28;20070;-73
2023/03/13 10:09:39;;;;;;;4.00;1.88;;;16.10;88.20;;;;;;5113400;28;20029;-74
2023/03/13 10:12:20;;;;;;;3.53;1.60;;;16.00;89.30;;;;;;5112420;28;20029;-74
2023/03/13 10:14:51;;;;;;;3.10;1.50;;;15.90;88.30;;;;;;5113428;28;20054;-74
2023/03/13 10:17:37;;;;;;;1.40;1.00;;;15.90;88.60;;;;;;5113563;28;20032;-74
2023/03/13 10:20:09;;;;;;;8.95;1.67;;;15.80;88.80;;;;;;5113368;28;20297;-74
2023/03/13 10:22:36;;;;;;;7.20;1.85;;;15.80;88.00;;;;;;5113403;28;20024;-74
2023/03/13 10:25:30;;;;;;;5.05;1.33;;;15.90;88.20;;;;;;5113348;28;20071;-74
2023/03/13 10:27:56;;;;;;;4.70;1.13;;;16.00;87.70;;;;;;5113377;28;20032;-74
2023/03/13 10:30:34;;;;;;;1.70;0.90;;;16.00;86.50;;;;;;5113346;28;20556;-74
2023/03/13 10:33:21;;;;;;;4.32;1.60;;;16.00;86.60;;;;;;5113307;28;20021;-73
2023/03/13 10:36:06;;;;;;;4.68;1.25;;;16.00;87.50;;;;;;5112564;28;20055;-74
2023/03/13 10:38:53;;;;;;;3.30;1.40;;;16.10;85.60;;;;;;5112213;28;20050;-74
2023/03/13 10:41:21;;;;;;;2.15;1.02;;;16.10;85.20;;;;;;5113191;28;20042;-75
2023/03/13 10:43:53;;;;;;;4.28;1.75;;;16.00;84.80;;;;;;5112152;28;20032;-75
2023/03/13 10:46:46;;;;;;;2.95;1.40;;;16.10;85.30;;;;;;5112973;28;20083;-74
2023/03/13 10:49:19;;;;;;;3.28;1.20;;;16.10;85.50;;;;;;5109815;28;20040;-75
2023/03/13 10:51:56;;;;;;;1.70;1.10;;;16.10;85.20;;;;;;5112062;28;20024;-75
2023/03/13 10:54:35;;;;;;;1.92;1.05;;;16.20;86.10;;;;;;5113184;28;20584;-74
2023/03/13 10:57:35;;;;;;;5.00;1.70;;;16.20;85.00;;;;;;5112044;28;20036;-73
2023/03/13 11:00:22;;;;;;;2.28;1.17;;;16.20;84.20;;;;;;5113041;28;20036;-73
2023/03/13 11:02:48;;;;;;;3.58;1.40;;;16.20;85.20;;;;;;5113175;28;20023;-73
2023/03/13 11:05:49;;;;;;;3.38;1.25;;;16.20;85.00;;;;;;5112963;28;20020;-73
2023/03/13 11:08:15;;;;;;;2.55;1.20;;;16.30;83.60;;;;;;5108778;28;20095;-74
2023/03/13 11:10:58;;;;;;;5.28;2.28;;;16.30;84.50;;;;;;5112940;28;20035;-73
2023/03/13 11:13:41;;;;;;;2.75;1.35;;;16.40;83.40;;;;;;5112947;28;20017;-73
2023/03/13 11:16:18;;;;;;;3.83;2.13;;;16.40;82.90;;;;;;5114925;28;20094;-74
2023/03/13 11:19:00;;;;;;;4.25;1.83;;;16.40;83.90;;;;;;5116490;28;20121;-73
2023/03/13 11:22:09;;;;;;;1.10;1.00;;;16.50;82.80;;;;;;5116660;28;20017;-73
2023/03/13 11:25:11;;;;;;;3.83;1.23;;;16.50;83.30;;;;;;5116588;28;20016;-73
2023/03/13 11:27:55;;;;;;;1.92;0.90;;;16.50;83.40;;;;;;5116542;28;20024;-73
2023/03/13 11:30:45;;;;;;;3.60;1.17;;;16.50;84.00;;;;;;5116334;28;20106;-73
2023/03/13 11:33:22;;;;;;;1.35;0.65;;;16.50;83.00;;;;;;5115511;28;20043;-74
2023/03/13 11:36:13;;;;;;;0.65;0.57;;;16.50;81.40;;;;;;5116326;28;20103;-73
2023/03/13 11:38:47;;;;;;;1.88;1.05;;;16.50;80.80;;;;;;5116243;28;20020;-73
2023/03/13 11:41:31;;;;;;;1.02;0.80;;;16.60;80.70;;;;;;5116142;28;20055;-74
2023/03/13 11:44:08;;;;;;;1.73;0.90;;;16.70;80.20;;;;;;5116090;28;20020;-74
2023/03/13 11:46:53;;;;;;;2.25;1.02;;;16.80;79.60;;;;;;5115996;28;20053;-74
2023/03/13 11:49:46;;;;;;;1.65;0.68;;;16.90;76.60;;;;;;5115854;28;20039;-74
2023/03/13 11:52:26;;;;;;;1.63;0.80;;;17.10;74.50;;;;;;5115920;28;20024;-75
2023/03/13 11:55:28;;;;;;;1.25;0.93;;;17.10;73.80;;;;;;5115984;28;20024;-75
2023/03/13 11:58:11;;;;;;;1.85;1.00;;;17.10;73.10;;;;;;5110160;28;20040;-75
2023/03/13 12:00:46;;;;;;;1.00;0.65;;;17.10;74.60;;;;;;5115871;28;20028;-73
2023/03/13 12:03:40;;;;;;;3.22;1.25;;;17.00;75.40;;;;;;5115663;28;20031;-73
2023/03/13 12:06:23;;;;;;;2.20;1.30;;;16.90;74.70;;;;;;5115619;28;20102;-74
2023/03/13 12:08:54;;;;;;;2.75;1.30;;;16.90;75.30;;;;;;5115529;28;20016;-75
2023/03/13 12:11:46;;;;;;;2.60;1.00;;;17.10;76.70;;;;;;5115525;28;20084;-75
2023/03/13 12:14:21;;;;;;;3.40;1.15;;;17.20;75.60;;;;;;5101101;28;20028;-75
2023/03/13 12:16:54;;;;;;;4.22;1.30;;;17.10;73.80;;;;;;5115474;28;20044;-75
2023/03/13 12:19:33;;;;;;;2.75;0.95;;;17.00;73.90;;;;;;5115379;28;20023;-75
2023/03/13 12:22:11;;;;;;;2.30;0.90;;;17.10;73.00;;;;;;5115333;28;20024;-74
2023/03/13 12:24:57;;;;;;;2.53;0.93;;;17.20;72.60;;;;;;5115398;28;20076;-75
2023/03/13 12:27:37;;;;;;;2.55;0.73;;;17.30;73.20;;;;;;5114548;28;20024;-75
2023/03/13 12:30:26;;;;;;;3.92;1.30;;;17.40;74.00;;;;;;5115286;28;20028;-75
2023/03/13 12:33:09;;;;;;;2.30;1.00;;;17.60;74.30;;;;;;5115102;28;20024;-75
2023/03/13 12:35:36;;;;;;;3.47;1.00;;;17.70;75.30;;;;;;5115037;28;20078;-74
2023/03/13 12:38:40;;;;;;;1.42;1.20;;;17.60;74.90;;;;;;5114888;28;20149;-75
2023/03/13 12:41:20;;;;;;;3.63;1.20;;;17.40;74.50;;;;;;5115056;28;20023;-75
2023/03/13 12:43:49;;;;;;;2.15;1.10;;;17.40;75.40;;;;;;5114882;28;20074;-75
2023/03/13 12:46:30;;;;;;;3.13;1.17;;;17.30;74.00;;;;;;5113722;28;20092;-74
2023/03/13 12:49:07;;;;;;;2.67;1.05;;;17.20;72.70;;;;;;5114510;28;20127;-75
2023/03/13 12:52:01;;;;;;;4.03;1.10;;;17.30;75.60;;;;;;5114868;28;20050;-74
2023/03/13 12:54:47;;;;;;;2.22;1.38;;;17.40;73.70;;;;;;5114694;28;20095;-74
2023/03/13 12:57:39;;;;;;;3.00;0.73;;;17.50;72.60;;;;;;5113829;28;20180;-74
2023/03/13 13:00:34;;;;;;;3.42;0.80;;;17.70;72.20;;;;;;5114723;28;20031;-74
2023/03/13 13:03:30;;;;;;;2.10;1.05;;;17.70;71.80;;;;;;5113426;28;20017;-75